ボードー の空港の天気 - METARとTAF

Bodo Vi ( ENBO / BOO ) - ノルウェー ヌールラン県ボードー
飛行場実況気象(Metar)
観測時間02/28 00:50 CET (02/27 23:50 UTC)
風向・風速東 10m/s
視程10km以上
天気現象弱い雪 低い地吹雪
全天の4割程度の雲 雲底高度 610m
全天の8割程度の雲 雲底高度 1070m
気温-2℃
湿度74%
気圧990hPa
METARENBO 272350Z 08019KT 9999 -SN DRSN SCT020 BKN035 M02/M06 Q0990
過去の天気等 Google飛行場航空写真 Wunderground天気予報

過去48時間のMETAR

飛行場予報(TAF)
発表時間: -
28日16時 CET ~ 1日1時 CET に一時的に
風向・風速東南東 15m/s 瞬間風速 21m/s
TAF ENBO 2800/2824 08020KT 9999 FEW030 SCT050
TEMPO 2815/2824 12030G40KT